Time;durP1;ratioP1;P1;durP2;ratioP2;P2;SDS_P1;SDS_P2;PMS_P1;PMS_P2;Temp;Humidity;BMP_temperature;BMP_pressure;BME280_temperature;BME280_humidity;BME280_pressure;Samples;Min_cycle;Max_cycle;Signal;HPM_P1;HPM_P2
2023/02/25 00:00:09;;;;;;;;;;;;;;;3.44;75.32;98589.84;104892;1293;71686;-79
2023/02/25 00:02:56;;;;;;;;;;;;;;;3.42;75.37;98586.63;104892;1293;61254;-79
2023/02/25 00:05:42;;;;;;;;;;;;;;;3.43;75.42;98580.98;105024;1288;61124;-79
2023/02/25 00:08:29;;;;;;;;;;;;;;;3.43;75.49;98574.17;105017;1288;73230;-79
2023/02/25 00:11:16;;;;;;;;;;;;;;;3.44;75.54;98572.79;104998;1288;69921;-79
2023/02/25 00:14:02;;;;;;;;;;;;;;;3.43;75.55;98569.23;104883;1294;71382;-79
2023/02/25 00:16:49;;;;;;;;;;;;;;;3.43;75.68;98563.10;105015;1292;61394;-79
2023/02/25 00:19:35;;;;;;;;;;;;;;;3.43;75.69;98559.52;104956;1288;61173;-79
2023/02/25 00:22:22;;;;;;;;;;;;;;;3.42;75.67;98553.75;104962;1292;72150;-79
2023/02/25 00:25:08;;;;;;;;;;;;;;;3.42;75.74;98546.10;104843;1288;68085;-79
2023/02/25 00:27:54;;;;;;;;;;;;;;;3.42;75.73;98545.08;104824;1288;71064;-79
2023/02/25 00:30:41;;;;;;;;;;;;;;;3.41;75.75;98543.55;104972;1293;61045;-79
2023/02/25 00:33:27;;;;;;;;;;;;;;;3.39;75.81;98541.38;104844;1288;61191;-79
2023/02/25 00:36:18;;;;;;;;;;;;;;;3.39;75.87;98536.27;104838;1288;74735;-79
2023/02/25 00:39:04;;;;;;;;;;;;;;;3.39;75.85;98533.38;105014;1288;67253;-79
2023/02/25 00:41:51;;;;;;;;;;;;;;;3.38;75.83;98532.21;104983;1288;71246;-79
2023/02/25 00:44:37;;;;;;;;;;;;;;;3.36;75.99;98527.14;104982;1292;61057;-79
2023/02/25 00:47:23;;;;;;;;;;;;;;;3.33;75.93;98526.34;104966;1292;61133;-79
2023/02/25 00:50:09;;;;;;;;;;;;;;;3.32;76.06;98523.63;104984;1291;74100;-79
2023/02/25 00:52:56;;;;;;;;;;;;;;;3.34;76.08;98518.48;104996;1287;68383;-79
2023/02/25 00:55:43;;;;;;;;;;;;;;;3.37;76.02;98512.82;105008;1288;74074;-79
2023/02/25 00:58:29;;;;;;;;;;;;;;;3.38;76.08;98506.50;104977;1288;61853;-79
2023/02/25 01:01:18;;;;;;;;;;;;;;;3.38;76.09;98505.99;104839;1288;61366;-79
2023/02/25 01:04:05;;;;;;;;;;;;;;;3.40;76.08;98502.71;105027;1288;73350;-79
2023/02/25 01:06:53;;;;;;;;;;;;;;;3.40;76.08;98498.61;104875;1288;67417;-79
2023/02/25 01:09:39;;;;;;;;;;;;;;;3.40;76.13;98495.04;104988;1288;71150;-79
2023/02/25 01:12:25;;;;;;;;;;;;;;;3.41;76.15;98488.20;104813;1288;61292;-79
2023/02/25 01:15:12;;;;;;;;;;;;;;;3.43;76.21;98484.09;105067;1288;61172;-78
2023/02/25 01:17:58;;;;;;;;;;;;;;;3.43;76.26;98483.56;104885;1288;75624;-79
2023/02/25 01:20:44;;;;;;;;;;;;;;;3.42;76.21;98475.23;104957;1288;67352;-79
2023/02/25 01:23:30;;;;;;;;;;;;;;;3.43;76.26;98475.23;104776;1288;70331;-79
2023/02/25 01:26:17;;;;;;;;;;;;;;;3.45;76.28;98471.43;104869;1292;74564;-78
2023/02/25 01:29:07;;;;;;;;;;;;;;;3.46;76.31;98467.65;104988;1288;61545;-78
2023/02/25 01:31:55;;;;;;;;;;;;;;;3.48;76.27;98466.59;104838;1290;74098;-79
2023/02/25 01:34:41;;;;;;;;;;;;;;;3.50;76.24;98467.58;104888;1288;67146;-79
2023/02/25 01:37:28;;;;;;;;;;;;;;;3.50;76.33;98461.61;104978;1288;71517;-79
2023/02/25 01:40:15;;;;;;;;;;;;;;;3.49;76.35;98456.01;104950;1292;61132;-79
2023/02/25 01:43:03;;;;;;;;;;;;;;;3.51;76.32;98450.02;104984;1288;59466;-79
2023/02/25 01:45:53;;;;;;;;;;;;;;;3.51;76.37;98443.70;104848;1296;78976;-79
2023/02/25 01:48:39;;;;;;;;;;;;;;;3.51;76.44;98440.63;104977;1288;67297;-78
2023/02/25 01:51:27;;;;;;;;;;;;;;;3.52;76.42;98438.05;104807;1288;71406;-79
2023/02/25 01:54:13;;;;;;;;;;;;;;;3.53;76.41;98431.06;106049;1288;58857;-79
2023/02/25 01:57:02;;;;;;;;;;;;;;;3.54;76.36;98427.80;106204;1292;59460;-79
2023/02/25 01:59:49;;;;;;;;;;;;;;;3.52;76.35;98425.27;106057;1288;73323;-79
2023/02/25 02:02:35;;;;;;;;;;;;;;;3.53;76.37;98425.27;106020;1288;69125;-79
2023/02/25 02:05:24;;;;;;;;;;;;;;;3.55;76.47;98424.20;106161;1288;71389;-79
2023/02/25 02:08:10;;;;;;;;;;;;;;;3.57;76.40;98418.86;106186;1291;58845;-79
2023/02/25 02:10:56;;;;;;;;;;;;;;;3.59;76.47;98416.61;106057;1288;59233;-79
2023/02/25 02:13:45;;;;;;;;;;;;;;;3.60;76.45;98411.30;106224;1288;73123;-80
2023/02/25 02:16:50;;;;;;;;;;;;;;;3.62;76.42;98405.46;106216;1288;68247;-80
2023/02/25 02:20:14;;;;;;;;;;;;;;;3.64;76.47;98402.33;106193;1288;72971;-80
2023/02/25 02:23:20;;;;;;;;;;;;;;;3.66;76.51;98399.38;105606;1295;59134;-79
2023/02/25 02:26:19;;;;;;;;;;;;;;;3.66;76.51;98396.98;105575;1294;60787;-79
2023/02/25 02:29:31;;;;;;;;;;;;;;;3.66;76.56;98394.42;105611;1299;73527;-79
2023/02/25 02:32:20;;;;;;;;;;;;;;;3.67;76.48;98389.47;105126;1305;67325;-79
2023/02/25 02:35:19;;;;;;;;;;;;;;;3.65;76.57;98384.75;105178;1303;71449;-80
2023/02/25 02:38:34;;;;;;;;;;;;;;;3.66;76.53;98384.55;105103;1302;59062;-80
2023/02/25 02:41:49;;;;;;;;;;;;;;;3.66;76.55;98379.96;104583;1308;59477;-79
2023/02/25 02:44:40;;;;;;;;;;;;;;;3.65;76.56;98369.41;104072;1314;73143;-79
2023/02/25 02:47:45;;;;;;;;;;;;;;;3.65;76.66;98367.02;104100;1311;68939;-79
2023/02/25 02:50:33;;;;;;;;;;;;;;;3.66;76.69;98365.64;104047;1311;71421;-79
2023/02/25 02:53:26;;;;;;;;;;;;;;;3.66;76.53;98359.67;103747;1314;434726;-79
2023/02/25 02:56:13;;;;;;;;;;;;;;;3.65;76.61;98361.05;104001;1314;59303;-79
2023/02/25 02:59:04;;;;;;;;;;;;;;;3.67;76.70;98359.16;104335;1308;74016;-79
2023/02/25 03:01:54;;;;;;;;;;;;;;;3.68;76.77;98357.95;104432;1308;67417;-79
2023/02/25 03:04:42;;;;;;;;;;;;;;;3.68;76.76;98353.84;104530;1307;72609;-79
2023/02/25 03:07:31;;;;;;;;;;;;;;;3.70;76.83;98349.88;104422;1314;59376;-79
2023/02/25 03:10:19;;;;;;;;;;;;;;;3.71;76.76;98351.55;104906;1305;60316;-80
2023/02/25 03:13:05;;;;;;;;;;;;;;;3.73;76.75;98347.77;105072;1305;73244;-79
2023/02/25 03:15:51;;;;;;;;;;;;;;;3.73;76.77;98348.61;105075;1305;67503;-79
2023/02/25 03:18:46;;;;;;;;;;;;;;;3.72;76.84;98349.66;105500;1299;72241;-79
2023/02/25 03:21:36;;;;;;;;;;;;;;;3.72;76.82;98345.06;104945;1290;61731;-79
2023/02/25 03:24:27;;;;;;;;;;;;;;;3.72;76.86;98347.42;104762;1288;61118;-79
2023/02/25 03:27:23;;;;;;;;;;;;;;;3.73;76.87;98346.05;104959;1290;73957;-79
2023/02/25 03:30:30;;;;;;;;;;;;;;;3.74;76.92;98343.65;104981;1289;67749;-79
2023/02/25 03:33:25;;;;;;;;;;;;;;;3.75;76.97;98344.48;104228;1302;75164;-79
2023/02/25 03:36:13;;;;;;;;;;;;;;;3.73;76.94;98344.18;104258;1302;61279;-79
2023/02/25 03:39:03;;;;;;;;;;;;;;;3.72;77.00;98342.84;104124;1297;61192;-79
2023/02/25 03:41:52;;;;;;;;;;;;;;;3.71;77.05;98343.05;104121;1296;75152;-79
2023/02/25 03:44:42;;;;;;;;;;;;;;;3.70;77.03;98341.70;104194;1296;68166;-78
2023/02/25 03:47:30;;;;;;;;;;;;;;;3.69;77.10;98340.86;104141;1301;72991;-78
2023/02/25 03:50:18;;;;;;;;;;;;;;;3.66;77.07;98342.47;104242;1296;61201;-78
2023/02/25 03:53:05;;;;;;;;;;;;;;;3.63;77.13;98339.84;104231;1296;61693;-78
2023/02/25 03:55:52;;;;;;;;;;;;;;;3.60;77.09;98342.66;104183;1300;74560;-78
2023/02/25 03:58:39;;;;;;;;;;;;;;;3.56;77.14;98338.99;104287;1296;69247;-78
2023/02/25 04:01:29;;;;;;;;;;;;;;;3.55;77.11;98339.20;104138;1297;72847;-78
2023/02/25 04:04:15;;;;;;;;;;;;;;;3.50;77.12;98342.89;104115;1299;61779;-78
2023/02/25 04:07:01;;;;;;;;;;;;;;;3.48;77.23;98342.78;104213;1296;63957;-79
2023/02/25 04:09:47;;;;;;;;;;;;;;;3.46;77.24;98341.13;104280;1294;75190;-78
2023/02/25 04:12:33;;;;;;;;;;;;;;;3.43;77.20;98344.77;104844;1290;67302;-78
2023/02/25 04:15:19;;;;;;;;;;;;;;;3.40;77.23;98347.58;104650;1294;73993;-78
2023/02/25 04:18:07;;;;;;;;;;;;;;;3.37;77.25;98344.23;104637;1292;60062;-78
2023/02/25 04:20:54;;;;;;;;;;;;;;;3.33;77.24;98344.65;104644;1289;61180;-78
2023/02/25 04:23:40;;;;;;;;;;;;;;;3.32;77.20;98347.91;104653;1289;72703;-78
2023/02/25 04:26:27;;;;;;;;;;;;;;;3.31;77.25;98348.95;104866;1290;66792;-78
2023/02/25 04:29:13;;;;;;;;;;;;;;;3.28;77.34;98344.42;104754;1292;74119;-78
2023/02/25 04:31:59;;;;;;;;;;;;;;;3.24;77.30;98346.73;104588;1294;61169;-78
2023/02/25 04:34:45;;;;;;;;;;;;;;;3.23;77.31;98345.74;104749;1293;61247;-78
2023/02/25 04:37:31;;;;;;;;;;;;;;;3.21;77.41;98343.56;104840;1293;73399;-78
2023/02/25 04:40:19;;;;;;;;;;;;;;;3.19;77.41;98343.09;104821;1289;67242;-78
2023/02/25 04:43:05;;;;;;;;;;;;;;;3.17;77.35;98342.13;104719;1293;72405;-78
2023/02/25 04:45:53;;;;;;;;;;;;;;;3.17;77.39;98344.18;104888;1292;61264;-78
2023/02/25 04:48:39;;;;;;;;;;;;;;;3.15;77.49;98339.46;104752;1288;59007;-78
2023/02/25 04:51:25;;;;;;;;;;;;;;;3.13;77.41;98338.14;104805;1288;73301;-78
2023/02/25 04:54:12;;;;;;;;;;;;;;;3.13;77.38;98343.09;104896;1290;67345;-78
2023/02/25 04:56:58;;;;;;;;;;;;;;;3.07;77.28;98338.13;104758;1291;71214;-78
2023/02/25 04:59:44;;;;;;;;;;;;;;;3.06;77.49;98341.05;104958;1290;61218;-78
2023/02/25 05:02:31;;;;;;;;;;;;;;;3.04;77.47;98340.08;104859;1290;61367;-79
2023/02/25 05:05:18;;;;;;;;;;;;;;;3.05;77.54;98341.77;104930;1290;74682;-78
2023/02/25 05:08:04;;;;;;;;;;;;;;;3.05;77.57;98339.70;104841;1288;70431;-78
2023/02/25 05:10:50;;;;;;;;;;;;;;;3.03;77.47;98336.70;104885;1288;71406;-78
2023/02/25 05:13:36;;;;;;;;;;;;;;;3.00;77.47;98332.33;104821;1288;61552;-78
2023/02/25 05:16:23;;;;;;;;;;;;;;;2.98;77.54;98335.95;104967;1288;61427;-78
2023/02/25 05:19:13;;;;;;;;;;;;;;;2.97;77.55;98333.25;104894;1290;73323;-78
2023/02/25 05:21:59;;;;;;;;;;;;;;;2.94;77.53;98335.34;104812;1288;67279;-78
2023/02/25 05:24:45;;;;;;;;;;;;;;;2.94;77.58;98335.87;104893;1290;73634;-78
2023/02/25 05:27:32;;;;;;;;;;;;;;;2.93;77.59;98337.59;104823;1288;61280;-78
2023/02/25 05:30:19;;;;;;;;;;;;;;;2.92;77.64;98339.31;104881;1289;62077;-78
2023/02/25 05:33:05;;;;;;;;;;;;;;;2.91;77.67;98340.70;104847;1288;73174;-78
2023/02/25 05:35:51;;;;;;;;;;;;;;;2.90;77.67;98343.77;104791;1292;68498;-79
2023/02/25 05:38:37;;;;;;;;;;;;;;;2.89;77.77;98342.60;104797;1289;72530;-78
2023/02/25 05:41:24;;;;;;;;;;;;;;;2.88;77.69;98350.63;104870;1288;61186;-78
2023/02/25 05:44:10;;;;;;;;;;;;;;;2.87;77.69;98354.05;104806;1288;61172;-78
2023/02/25 05:46:57;;;;;;;;;;;;;;;2.87;77.80;98355.60;104948;1288;73210;-79
2023/02/25 05:49:43;;;;;;;;;;;;;;;2.87;77.83;98359.34;104969;1292;68404;-77
2023/02/25 05:52:30;;;;;;;;;;;;;;;2.87;77.80;98358.65;104910;1288;72070;-78
2023/02/25 05:55:16;;;;;;;;;;;;;;;2.87;77.81;98359.16;104793;1288;59134;-78
2023/02/25 05:58:03;;;;;;;;;;;;;;;2.87;77.81;98363.41;104945;1288;61134;-79
2023/02/25 06:00:49;;;;;;;;;;;;;;;2.87;77.82;98367.48;104957;1290;77728;-78
2023/02/25 06:03:36;;;;;;;;;;;;;;;2.86;77.79;98371.77;104834;1288;68459;-78
2023/02/25 06:06:23;;;;;;;;;;;;;;;2.86;77.89;98373.63;104796;1288;72616;-78
2023/02/25 06:09:10;;;;;;;;;;;;;;;2.85;77.84;98377.23;104772;1288;61856;-78
2023/02/25 06:11:56;;;;;;;;;;;;;;;2.84;77.85;98378.63;104816;1289;61969;-78
2023/02/25 06:14:42;;;;;;;;;;;;;;;2.83;77.94;98383.06;104818;1289;74026;-78
2023/02/25 06:17:28;;;;;;;;;;;;;;;2.83;77.95;98384.43;104742;1289;69686;-78
2023/02/25 06:20:16;;;;;;;;;;;;;;;2.83;77.94;98389.36;104848;1292;71472;-78
2023/02/25 06:23:02;;;;;;;;;;;;;;;2.82;77.93;98387.52;104947;1288;60605;-78
2023/02/25 06:25:48;;;;;;;;;;;;;;;2.82;77.92;98400.10;104981;1289;61961;-77
2023/02/25 06:28:35;;;;;;;;;;;;;;;2.82;77.98;98399.07;104970;1288;74225;-77
2023/02/25 06:31:22;;;;;;;;;;;;;;;2.84;78.00;98402.94;104985;1292;67755;-78
2023/02/25 06:34:08;;;;;;;;;;;;;;;2.86;78.07;98407.84;104839;1290;71191;-78
2023/02/25 06:36:54;;;;;;;;;;;;;;;2.89;78.11;98407.95;104935;1288;61496;-77
2023/02/25 06:39:41;;;;;;;;;;;;;;;2.90;77.96;98408.44;104938;1288;62085;-77
2023/02/25 06:42:28;;;;;;;;;;;;;;;2.89;77.95;98408.27;104878;1288;74286;-77
2023/02/25 06:45:14;;;;;;;;;;;;;;;2.90;78.01;98412.54;104706;1291;66446;-77
2023/02/25 06:48:01;;;;;;;;;;;;;;;2.91;78.03;98410.98;104889;1289;71463;-77
2023/02/25 06:50:48;;;;;;;;;;;;;;;2.92;78.09;98413.15;104897;1289;61967;-77
2023/02/25 06:53:35;;;;;;;;;;;;;;;2.94;77.97;98416.35;104952;1290;61984;-77
2023/02/25 06:56:21;;;;;;;;;;;;;;;2.96;78.10;98415.80;104800;1289;76913;-77
2023/02/25 06:59:07;;;;;;;;;;;;;;;2.99;78.17;98417.27;104750;1289;68686;-78
2023/02/25 07:01:54;;;;;;;;;;;;;;;3.02;78.17;98417.40;104675;1289;72156;-78
2023/02/25 07:04:40;;;;;;;;;;;;;;;3.03;78.16;98423.16;104953;1290;61923;-78
2023/02/25 07:07:26;;;;;;;;;;;;;;;3.04;78.17;98424.48;104768;1291;62094;-77
2023/02/25 07:10:12;;;;;;;;;;;;;;;3.08;78.20;98426.27;104892;1293;73400;-77
2023/02/25 07:12:58;;;;;;;;;;;;;;;3.11;78.20;98426.20;104899;1291;68951;-77
2023/02/25 07:15:44;;;;;;;;;;;;;;;3.14;78.13;98426.46;104923;1291;73112;-77
2023/02/25 07:18:31;;;;;;;;;;;;;;;3.16;78.12;98429.31;104930;1293;62124;-77
2023/02/25 07:21:18;;;;;;;;;;;;;;;3.19;78.15;98433.00;104936;1290;60098;-77
2023/02/25 07:24:04;;;;;;;;;;;;;;;3.22;78.26;98440.59;104777;1293;74009;-77
2023/02/25 07:26:51;;;;;;;;;;;;;;;3.24;78.15;98440.88;104739;1289;67817;-77
2023/02/25 07:29:37;;;;;;;;;;;;;;;3.28;78.22;98444.38;104775;1290;74024;-77
2023/02/25 07:32:24;;;;;;;;;;;;;;;3.30;78.18;98446.38;104874;1293;61981;-76
2023/02/25 07:35:10;;;;;;;;;;;;;;;3.33;78.27;98447.34;104809;1293;61784;-76
2023/02/25 07:37:56;;;;;;;;;;;;;;;3.36;78.20;98449.33;104709;1293;74166;-77
2023/02/25 07:40:43;;;;;;;;;;;;;;;3.35;78.19;98452.06;104756;1291;66302;-77
2023/02/25 07:43:29;;;;;;;;;;;;;;;3.33;78.24;98453.80;104887;1290;71368;-77
2023/02/25 07:46:15;;;;;;;;;;;;;;;3.32;78.17;98454.16;104905;1290;61956;-77
2023/02/25 07:49:02;;;;;;;;;;;;;;;3.30;78.21;98459.48;104778;1291;62139;-77
2023/02/25 07:51:48;;;;;;;;;;;;;;;3.28;78.18;98466.52;104766;1293;74149;-77
2023/02/25 07:54:34;;;;;;;;;;;;;;;3.25;78.18;98467.27;104791;1289;68414;-76
2023/02/25 07:57:20;;;;;;;;;;;;;;;3.21;78.17;98474.31;104894;1289;71848;-76
2023/02/25 08:00:10;;;;;;;;;;;;;;;3.20;78.19;98476.04;104776;1289;61930;-76
2023/02/25 08:02:56;;;;;;;;;;;;;;;3.19;78.19;98482.02;104880;1290;62049;-76
2023/02/25 08:05:42;;;;;;;;;;;;;;;3.22;78.28;98479.76;104817;1289;74896;-76
2023/02/25 08:08:28;;;;;;;;;;;;;;;3.26;78.36;98480.86;104895;1290;67392;-76
2023/02/25 08:11:14;;;;;;;;;;;;;;;3.27;78.30;98480.83;104709;1290;71141;-76
2023/02/25 08:14:01;;;;;;;;;;;;;;;3.31;78.35;98479.55;104867;1293;62518;-76
2023/02/25 08:16:47;;;;;;;;;;;;;;;3.38;78.44;98482.98;104845;1291;62001;-76
2023/02/25 08:19:33;;;;;;;;;;;;;;;3.45;78.42;98484.38;104698;1291;76817;-76
2023/02/25 08:22:19;;;;;;;;;;;;;;;3.49;78.40;98489.40;104725;1293;68313;-77
2023/02/25 08:25:06;;;;;;;;;;;;;;;3.55;78.40;98491.14;104914;1292;71286;-77
2023/02/25 08:27:52;;;;;;;;;;;;;;;3.60;78.44;98491.89;104443;1296;227931;-77
2023/02/25 08:30:38;;;;;;;;;;;;;;;3.60;78.42;98495.64;104793;1289;61981;-77
2023/02/25 08:33:25;;;;;;;;;;;;;;;3.65;78.46;98493.97;104819;1290;74943;-77
2023/02/25 08:36:14;;;;;;;;;;;;;;;3.67;78.46;98501.23;104694;1291;67858;-77
2023/02/25 08:39:01;;;;;;;;;;;;;;;3.70;78.47;98501.00;104683;1293;71539;-77
2023/02/25 08:41:47;;;;;;;;;;;;;;;3.75;78.45;98503.27;104791;1289;60399;-77
2023/02/25 08:44:33;;;;;;;;;;;;;;;3.77;78.38;98503.73;104824;1289;61959;-77
2023/02/25 08:47:20;;;;;;;;;;;;;;;3.80;78.52;98504.54;104872;1289;74803;-77
2023/02/25 08:50:07;;;;;;;;;;;;;;;3.80;78.44;98506.91;104744;1293;69202;-77
2023/02/25 08:52:53;;;;;;;;;;;;;;;3.80;78.44;98512.72;104818;1288;71229;-78
2023/02/25 08:55:40;;;;;;;;;;;;;;;3.81;78.48;98516.27;105015;1288;60187;-79
2023/02/25 08:58:26;;;;;;;;;;;;;;;3.86;78.46;98521.59;104964;1288;61887;-79
2023/02/25 09:01:14;;;;;;;;;;;;;;;3.91;78.40;98519.43;105019;1288;74204;-79
2023/02/25 09:04:00;;;;;;;;;;;;;;;3.92;78.38;98521.80;105041;1288;67219;-81
2023/02/25 09:06:46;;;;;;;;;;;;;;;3.91;78.35;98527.27;104942;1288;71393;-79
2023/02/25 09:09:33;;;;;;;;;;;;;;;3.92;78.45;98527.44;104961;1288;62146;-79
2023/02/25 09:12:19;;;;;;;;;;;;;;;3.94;78.45;98533.85;104926;1288;60558;-80
2023/02/25 09:15:06;;;;;;;;;;;;;;;3.99;78.55;98531.19;105002;1288;73163;-79
2023/02/25 09:17:52;;;;;;;;;;;;;;;4.03;78.51;98537.75;105059;1290;67831;-79
2023/02/25 09:20:38;;;;;;;;;;;;;;;4.01;78.46;98537.47;104977;1288;71394;-79
2023/02/25 09:23:24;;;;;;;;;;;;;;;3.99;78.48;98540.40;105081;1288;60397;-79
2023/02/25 09:26:10;;;;;;;;;;;;;;;4.02;78.55;98538.98;105066;1288;60139;-79
2023/02/25 09:28:59;;;;;;;;;;;;;;;4.09;78.57;98540.52;105015;1288;73989;-80
2023/02/25 09:31:45;;;;;;;;;;;;;;;4.20;78.62;98541.42;105054;1288;67279;-78
2023/02/25 09:34:34;;;;;;;;;;;;;;;4.31;78.64;98539.27;104775;1289;71372;-78
2023/02/25 09:37:20;;;;;;;;;;;;;;;4.46;78.71;98543.02;104679;1288;62057;-78
2023/02/25 09:40:08;;;;;;;;;;;;;;;4.62;78.73;98547.20;104798;1288;61936;-78
2023/02/25 09:43:17;;;;;;;;;;;;;;;4.75;78.63;98546.52;104922;1288;74071;-77
2023/02/25 09:46:05;;;;;;;;;;;;;;;4.85;78.56;98546.77;104248;1295;67225;-77
2023/02/25 09:48:54;;;;;;;;;;;;;;;4.87;78.36;98545.88;104219;1296;71368;-77
2023/02/25 09:51:44;;;;;;;;;;;;;;;4.87;78.64;98547.39;104277;1296;62100;-77
2023/02/25 09:54:33;;;;;;;;;;;;;;;4.90;78.60;98550.38;105496;1296;59946;-77
2023/02/25 09:57:21;;;;;;;;;;;;;;;4.95;78.77;98556.23;105401;1297;73442;-77
2023/02/25 10:00:26;;;;;;;;;;;;;;;5.03;78.69;98557.08;105373;1300;67189;-77
2023/02/25 10:03:12;;;;;;;;;;;;;;;5.06;78.61;98561.25;105367;1296;71231;-77
2023/02/25 10:06:19;;;;;;;;;;;;;;;5.07;78.68;98565.66;105490;1295;60477;-77
2023/02/25 10:09:37;;;;;;;;;;;;;;;5.16;78.75;98561.14;104881;1302;60138;-77
2023/02/25 10:12:40;;;;;;;;;;;;;;;5.22;78.57;98561.62;104342;1310;74695;-80
2023/02/25 10:15:32;;;;;;;;;;;;;;;5.22;78.51;98568.45;104262;1308;67400;-80
2023/02/25 10:18:41;;;;;;;;;;;;;;;5.16;78.36;98572.06;104293;1309;71455;-80
2023/02/25 10:21:50;;;;;;;;;;;;;;;5.09;78.55;98572.59;103621;1314;60402;-80
2023/02/25 10:24:42;;;;;;;;;;;;;;;5.03;78.60;98574.48;103611;1317;60479;-80
2023/02/25 10:27:32;;;;;;;;;;;;;;;5.00;78.57;98577.95;103559;1316;73992;-80
2023/02/25 10:30:30;;;;;;;;;;;;;;;4.91;78.56;98585.36;103579;1317;67424;-80
2023/02/25 10:33:20;;;;;;;;;;;;;;;4.88;78.63;98586.81;103549;1316;72645;-79
2023/02/25 10:36:18;;;;;;;;;;;;;;;4.87;78.72;98592.65;103536;1316;60462;-78
2023/02/25 10:39:04;;;;;;;;;;;;;;;4.88;78.70;98594.15;103545;1317;60119;-78
2023/02/25 10:41:50;;;;;;;;;;;;;;;4.91;78.75;98595.77;103579;1316;75170;-78
2023/02/25 10:44:37;;;;;;;;;;;;;;;4.93;78.78;98595.72;103629;1316;67474;-78
2023/02/25 10:47:36;;;;;;;;;;;;;;;4.98;78.84;98598.50;104429;1305;71860;-78
2023/02/25 10:50:24;;;;;;;;;;;;;;;4.96;78.68;98601.11;104854;1305;60284;-78
2023/02/25 10:53:15;;;;;;;;;;;;;;;4.93;78.58;98602.23;104954;1302;59808;-78
2023/02/25 10:56:02;;;;;;;;;;;;;;;4.88;78.64;98608.48;104881;1304;75383;-79
2023/02/25 10:59:21;;;;;;;;;;;;;;;4.85;78.70;98610.79;105252;1297;68781;-79
2023/02/25 11:02:25;;;;;;;;;;;;;;;4.85;78.80;98611.64;105866;1289;72324;-79
2023/02/25 11:05:31;;;;;;;;;;;;;;;4.85;78.77;98616.77;106133;1289;60184;-78
2023/02/25 11:08:27;;;;;;;;;;;;;;;4.86;78.83;98616.74;105954;1288;60119;-78
2023/02/25 11:11:16;;;;;;;;;;;;;;;4.89;78.80;98619.91;106119;1288;74050;-78
2023/02/25 11:14:04;;;;;;;;;;;;;;;4.85;78.67;98627.02;106157;1288;68204;-78
2023/02/25 11:16:50;;;;;;;;;;;;;;;4.77;78.66;98631.47;106122;1289;72835;-78
2023/02/25 11:19:37;;;;;;;;;;;;;;;4.73;78.71;98634.80;106149;1288;59260;-79
2023/02/25 11:22:28;;;;;;;;;;;;;;;4.69;78.67;98640.54;106006;1288;59440;-78
2023/02/25 11:25:16;;;;;;;;;;;;;;;4.63;78.67;98645.13;106052;1290;75446;-78
2023/02/25 11:28:02;;;;;;;;;;;;;;;4.59;78.66;98647.98;106003;1288;69532;-78
2023/02/25 11:30:48;;;;;;;;;;;;;;;4.54;78.67;98649.98;105948;1288;71162;-78
2023/02/25 11:33:37;;;;;;;;;;;;;;;4.49;78.67;98651.61;105855;1288;59865;-78
2023/02/25 11:36:28;;;;;;;;;;;;;;;4.49;78.81;98655.19;105029;1288;60511;-78
2023/02/25 11:39:20;;;;;;;;;;;;;;;4.54;78.83;98655.25;105119;1288;74246;-78
2023/02/25 11:42:21;;;;;;;;;;;;;;;4.58;78.78;98656.35;104979;1288;69614;-78
2023/02/25 11:45:15;;;;;;;;;;;;;;;4.69;78.90;98666.66;105031;1290;71136;-78
2023/02/25 11:48:03;;;;;;;;;;;;;;;4.76;78.76;98674.33;104979;1289;61939;-78
2023/02/25 11:51:09;;;;;;;;;;;;;;;4.79;78.73;98672.73;104968;1290;61959;-78
2023/02/25 11:54:03;;;;;;;;;;;;;;;4.83;78.86;98686.46;104537;1294;75362;-78
2023/02/25 11:56:56;;;;;;;;;;;;;;;4.85;78.75;98695.10;104547;1297;67540;-79
2023/02/25 12:00:18;;;;;;;;;;;;;;;4.82;78.82;98695.52;104536;1293;74171;-76
2023/02/25 12:03:30;;;;;;;;;;;;;;;4.78;78.66;98704.84;103937;1305;62072;-76
2023/02/25 12:06:25;;;;;;;;;;;;;;;4.68;78.63;98711.38;103810;1302;61992;-76
2023/02/25 12:09:11;;;;;;;;;;;;;;;4.62;78.65;98719.91;103925;1303;74882;-77
2023/02/25 12:12:30;;;;;;;;;;;;;;;4.58;78.70;98726.83;104059;1303;67241;-77
2023/02/25 12:15:37;;;;;;;;;;;;;;;4.56;78.91;98732.48;103528;1308;71793;-76
2023/02/25 12:18:46;;;;;;;;;;;;;;;4.58;78.83;98736.88;102682;1314;62149;-78
2023/02/25 12:21:53;;;;;;;;;;;;;;;4.59;78.76;98744.71;102333;1323;61984;-77
2023/02/25 12:25:00;;;;;;;;;;;;;;;4.52;78.60;98749.31;102445;1320;74340;-78
2023/02/25 12:27:59;;;;;;;;;;;;;;;4.43;78.65;98756.51;101956;1324;67309;-78
2023/02/25 12:31:20;;;;;;;;;;;;;;;4.38;78.64;98772.30;102009;1325;73119;-77
2023/02/25 12:34:39;;;;;;;;;;;;;;;4.27;78.54;98779.34;101898;1329;62052;-77
2023/02/25 12:37:39;;;;;;;;;;;;;;;4.18;78.80;98789.06;101815;1326;59874;-77
2023/02/25 12:40:44;;;;;;;;;;;;;;;4.10;78.54;98794.02;101983;1329;74169;-77
2023/02/25 12:43:42;;;;;;;;;;;;;;;4.04;78.72;98805.21;101954;1326;68789;-77
2023/02/25 12:46:47;;;;;;;;;;;;;;;3.99;78.79;98813.50;101999;1330;72909;-77
2023/02/25 12:49:41;;;;;;;;;;;;;;;3.95;78.80;98824.13;101972;1325;62152;-77
2023/02/25 12:52:46;;;;;;;;;;;;;;;3.93;78.70;98828.60;102408;1319;60713;-77
2023/02/25 12:56:05;;;;;;;;;;;;;;;3.89;78.74;98845.22;102601;1314;75732;-77
2023/02/25 12:59:09;;;;;;;;;;;;;;;3.84;78.75;98844.61;102758;1314;67238;-77
2023/02/25 13:02:15;;;;;;;;;;;;;;;3.83;78.85;98851.43;102770;1313;71362;-77
2023/02/25 13:05:22;;;;;;;;;;;;;;;3.85;78.78;98851.23;103102;1308;62817;-77
2023/02/25 13:08:40;;;;;;;;;;;;;;;3.83;78.81;98862.87;103157;1311;60660;-77
2023/02/25 13:11:31;;;;;;;;;;;;;;;3.81;78.87;98876.19;103038;1311;74619;-77
2023/02/25 13:14:35;;;;;;;;;;;;;;;3.83;78.85;98881.62;103540;1309;67250;-77
2023/02/25 13:17:40;;;;;;;;;;;;;;;3.82;78.74;98887.26;103544;1308;71367;-77
2023/02/25 13:20:42;;;;;;;;;;;;;;;3.79;78.79;98894.29;103586;1311;61266;-77
2023/02/25 13:23:56;;;;;;;;;;;;;;;3.79;78.72;98895.83;103553;1308;60625;-77
2023/02/25 13:27:09;;;;;;;;;;;;;;;3.78;78.86;98904.36;102813;1318;74246;-77
2023/02/25 13:30:03;;;;;;;;;;;;;;;3.80;78.90;98914.04;102461;1319;69342;-77
2023/02/25 13:33:09;;;;;;;;;;;;;;;3.81;78.75;98916.92;102487;1317;73215;-77
2023/02/25 13:36:15;;;;;;;;;;;;;;;3.80;78.80;98927.52;102888;1314;62819;-77
2023/02/25 13:39:18;;;;;;;;;;;;;;;3.78;78.75;98932.31;102848;1317;61974;-77
2023/02/25 13:42:26;;;;;;;;;;;;;;;3.79;78.85;98939.45;102652;1315;74127;-77
2023/02/25 13:45:44;;;;;;;;;;;;;;;3.82;78.97;98939.06;103141;1308;69232;-77
2023/02/25 13:48:39;;;;;;;;;;;;;;;3.84;78.84;98942.61;103613;1310;71231;-77
2023/02/25 13:51:25;;;;;;;;;;;;;;;3.86;78.88;98948.73;103564;1309;62238;-77
2023/02/25 13:54:17;;;;;;;;;;;;;;;3.85;78.71;98955.89;103624;1308;62116;-77
2023/02/25 13:57:04;;;;;;;;;;;;;;;3.82;78.81;98965.64;103707;1310;76802;-77
2023/02/25 14:00:01;;;;;;;;;;;;;;;3.82;78.86;98972.48;104662;1305;68649;-78
2023/02/25 14:03:13;;;;;;;;;;;;;;;3.83;78.82;98977.23;104608;1301;72603;-78
2023/02/25 14:06:10;;;;;;;;;;;;;;;3.82;78.69;98984.73;105064;1302;60372;-78
2023/02/25 14:09:05;;;;;;;;;;;;;;;3.83;78.61;98992.23;105505;1296;60674;-78
2023/02/25 14:12:03;;;;;;;;;;;;;;;3.85;78.65;98996.80;105489;1296;74718;-78
2023/02/25 14:15:07;;;;;;;;;;;;;;;3.85;78.63;99006.85;105506;1296;68185;-78
2023/02/25 14:18:19;;;;;;;;;;;;;;;3.83;78.52;99010.97;105479;1296;71565;-78
2023/02/25 14:21:17;;;;;;;;;;;;;;;3.81;78.59;99019.19;105105;1301;60438;-78
2023/02/25 14:24:32;;;;;;;;;;;;;;;3.77;78.57;99025.20;105280;1295;59965;-78
2023/02/25 14:27:41;;;;;;;;;;;;;;;3.74;78.68;99029.52;104994;1305;75430;-77
2023/02/25 14:30:52;;;;;;;;;;;;;;;3.74;78.71;99035.83;104404;1307;69209;-77
2023/02/25 14:33:53;;;;;;;;;;;;;;;3.75;78.63;99042.11;104406;1308;72754;-77
2023/02/25 14:37:06;;;;;;;;;;;;;;;3.76;78.71;99058.45;104382;1308;60289;-78
2023/02/25 14:39:55;;;;;;;;;;;;;;;3.77;78.70;99073.44;103463;1313;60280;-77
2023/02/25 14:42:52;;;;;;;;;;;;;;;3.73;78.57;99074.69;102953;1313;75239;-77
2023/02/25 14:45:43;;;;;;;;;;;;;;;3.63;78.64;99072.62;102987;1317;67177;-77
2023/02/25 14:48:48;;;;;;;;;;;;;;;3.53;78.77;99083.48;102956;1313;71263;-77
2023/02/25 14:51:52;;;;;;;;;;;;;;;3.47;78.82;99088.67;102931;1317;61907;-77
2023/02/25 14:55:01;;;;;;;;;;;;;;;3.44;78.86;99100.97;102848;1313;59795;-77